CheckWX is a tool to help pilots better visualize weather data.  It is not intended as a substitute for an official pre-flight weather briefing.

19:48:03 UTC

I67 METAR
Cincinnati West Airport
Harrison, Ohio, USA
Current

33 mins ago

KI67 261915Z AUTO 28006KT 10SM CLR 28/16 A2999 RMK AO1
Observed
May-26 @ 19:15 UTC
Wind
  • 280° at 6 KTS
Visibility
10 SM
Flight Rules
VFR
Cloud Levels
  • Clear skies
Temperature
28°C / 82°F
Dewpoint
16°C / 61°F
Heat Index
28°C / 82°F
Humidity
48%
Altimeter
29.99" Hg
Pressure
1015.62 hPa
Previous

53 mins ago

KI67 261855Z AUTO 34004KT 10SM CLR 28/18 A3000 RMK AO1
Observed
May-26 @ 18:55 UTC
Wind
  • 340° at 4 KTS
Visibility
10 SM
Flight Rules
VFR
Cloud Levels
  • Clear skies
Temperature
28°C / 82°F
Dewpoint
18°C / 64°F
Heat Index
29°C / 84°F
Humidity
55%
Altimeter
30" Hg
Pressure
1015.92 hPa
Previous

1 hour ago

KI67 261835Z AUTO 32007KT 10SM SCT030 SCT043 SCT055 27/19 A3001 RMK AO1
Observed
May-26 @ 18:35 UTC
Wind
  • 320° at 7 KTS
Visibility
10 SM
Flight Rules
VFR
Cloud Levels
  • Scattered at 3,000' AGL
  • Scattered at 4,300' AGL
  • Scattered at 5,500' AGL
Temperature
27°C / 81°F
Dewpoint
19°C / 66°F
Heat Index
28°C / 83°F
Humidity
62%
Altimeter
30.01" Hg
Pressure
1016.22 hPa